Time;durP1;ratioP1;P1;durP2;ratioP2;P2;SDS_P1;SDS_P2;PMS_P1;PMS_P2;Temp;Humidity;BMP_temperature;BMP_pressure;BME280_temperature;BME280_humidity;BME280_pressure;Samples;Min_cycle;Max_cycle;Signal;HPM_P1;HPM_P2
2023/03/12 00:01:51;;;;;;;;;;;-1.70;1.00;;;;;;5092401;28;19997;-81
2023/03/12 00:04:27;;;;;;;;;;;-1.70;1.00;;;;;;5094893;28;19915;-81
2023/03/12 00:07:09;;;;;;;;;;;-1.70;1.00;;;;;;5075955;28;19912;-81
2023/03/12 00:09:36;;;;;;;;;;;-1.70;1.00;;;;;;5066930;28;20402;-81
2023/03/12 00:15:21;;;;;;;;;;;-1.70;1.00;;;;;;5078439;28;19961;-81
2023/03/12 00:17:47;;;;;;;;;;;-1.70;1.00;;;;;;5078926;28;19912;-81
2023/03/12 00:20:15;;;;;;;;;;;-1.80;1.00;;;;;;5086148;28;19961;-81
2023/03/12 00:22:45;;;;;;;;;;;-1.70;1.00;;;;;;5075793;28;19957;-81
2023/03/12 00:25:12;;;;;;;;;;;-1.70;1.00;;;;;;5088799;28;19920;-81
2023/03/12 00:27:57;;;;;;;;;;;-1.70;1.00;;;;;;5094023;28;19950;-81
2023/03/12 00:30:57;;;;;;;;;;;-1.70;1.00;;;;;;5075886;28;19916;-81
2023/03/12 00:33:28;;;;;;;;;;;-1.60;1.00;;;;;;5076129;28;19912;-81
2023/03/12 00:36:09;;;;;;;;;;;-1.50;1.00;;;;;;5082332;28;19920;-81
2023/03/12 00:38:39;;;;;;;;;;;-1.50;1.00;;;;;;5057096;28;19916;-81
2023/03/12 00:41:09;;;;;;;;;;;-1.40;1.00;;;;;;5078606;28;19919;-82
2023/03/12 00:43:52;;;;;;;;;;;-1.30;1.00;;;;;;5097774;28;19934;-81
2023/03/12 00:46:33;;;;;;;;;;;-1.30;1.00;;;;;;5089228;28;19912;-82
2023/03/12 00:49:10;;;;;;;;;;;-1.20;1.00;;;;;;5098573;28;19912;-81
2023/03/12 00:54:39;;;;;;;;;;;-1.10;1.00;;;;;;5089088;28;19919;-81
2023/03/12 00:57:05;;;;;;;;;;;-1.00;1.00;;;;;;5066948;28;19951;-81
2023/03/12 00:59:30;;;;;;;;;;;-0.90;1.00;;;;;;5097554;28;20320;-82
2023/03/12 01:01:57;;;;;;;;;;;-0.80;1.00;;;;;;5097207;28;20363;-81
2023/03/12 01:04:23;;;;;;;;;;;-0.80;1.00;;;;;;5097881;28;19961;-78
2023/03/12 01:06:49;;;;;;;;;;;-0.80;1.00;;;;;;5097022;28;20345;-78
2023/03/12 01:09:33;;;;;;;;;;;-0.70;1.00;;;;;;5097072;28;19927;-77
2023/03/12 01:12:03;;;;;;;;;;;-0.70;1.00;;;;;;5079397;28;20014;-76
2023/03/12 01:14:41;;;;;;;;;;;-0.70;1.00;;;;;;5097563;28;19915;-76
2023/03/12 01:17:06;;;;;;;;;;;-0.60;1.00;;;;;;5094293;28;19919;-77
2023/03/12 01:19:39;;;;;;;;;;;-0.60;1.00;;;;;;5087145;28;19908;-81
2023/03/12 01:22:27;;;;;;;;;;;-0.50;1.00;;;;;;5095120;28;20037;-82
2023/03/12 01:25:27;;;;;;;;;;;-0.50;1.00;;;;;;5064954;28;19924;-81
2023/03/12 01:27:57;;;;;;;;;;;-0.50;1.00;;;;;;5076634;28;19959;-81
2023/03/12 01:30:33;;;;;;;;;;;-0.50;1.00;;;;;;5096614;28;20007;-82
2023/03/12 01:33:33;;;;;;;;;;;-0.50;1.00;;;;;;5097002;28;19966;-82
2023/03/12 01:36:19;;;;;;;;;;;-0.40;1.00;;;;;;5096946;28;20002;-82
2023/03/12 01:38:45;;;;;;;;;;;-0.40;1.00;;;;;;5085983;28;20335;-82
2023/03/12 01:41:28;;;;;;;;;;;-0.30;1.00;;;;;;5096644;28;19919;-82
2023/03/12 01:43:58;;;;;;;;;;;-0.30;1.00;;;;;;5078660;28;20275;-82
2023/03/12 01:46:29;;;;;;;;;;;-0.20;1.00;;;;;;5096520;28;19908;-81
2023/03/12 01:49:08;;;;;;;;;;;-0.20;1.00;;;;;;5087440;28;19912;-81
2023/03/12 01:51:39;;;;;;;;;;;-0.20;1.00;;;;;;5080611;28;19959;-77
2023/03/12 01:54:24;;;;;;;;;;;-0.20;1.00;;;;;;5095464;28;19916;-77
2023/03/12 01:56:58;;;;;;;;;;;-0.20;1.00;;;;;;5090207;28;21529;-77
2023/03/12 01:59:29;;;;;;;;;;;-0.20;1.00;;;;;;5096791;28;19912;-77
2023/03/12 02:01:55;;;;;;;;;;;-0.10;1.00;;;;;;5096407;28;20329;-77
2023/03/12 02:04:27;;;;;;;;;;;-0.10;1.00;;;;;;5096268;28;19998;-77
2023/03/12 02:07:27;;;;;;;;;;;-0.10;1.00;;;;;;5096163;28;19912;-77
2023/03/12 02:09:57;;;;;;;;;;;-0.10;1.00;;;;;;5093273;28;19978;-77
2023/03/12 02:12:23;;;;;;;;;;;-0.10;1.00;;;;;;5095867;28;19923;-77
2023/03/12 02:14:51;;;;;;;;;;;-0.10;1.00;;;;;;5095969;28;19912;-77
2023/03/12 02:17:17;;;;;;;;;;;-0.10;1.00;;;;;;5096591;28;20362;-77
2023/03/12 02:20:18;;;;;;;;;;;0.00;1.00;;;;;;5096460;28;19916;-82
2023/03/12 02:22:58;;;;;;;;;;;-0.10;1.00;;;;;;5002333;28;19918;-82
2023/03/12 02:25:57;;;;;;;;;;;-0.10;1.00;;;;;;5002210;28;20393;-82
2023/03/12 02:28:57;;;;;;;;;;;-0.10;1.00;;;;;;5013861;28;20004;-82
2023/03/12 02:31:36;;;;;;;;;;;0.00;1.00;;;;;;5001807;28;19925;-82
2023/03/12 02:34:09;;;;;;;;;;;0.00;1.00;;;;;;5007420;28;19952;-81
2023/03/12 02:36:39;;;;;;;;;;;0.00;1.00;;;;;;5002671;28;19916;-77
2023/03/12 02:39:15;;;;;;;;;;;0.00;1.00;;;;;;4994112;28;19953;-77
2023/03/12 02:41:47;;;;;;;;;;;0.00;1.00;;;;;;5011142;28;19914;-77
2023/03/12 02:44:32;;;;;;;;;;;0.00;1.00;;;;;;5000277;28;19913;-77
2023/03/12 02:47:15;;;;;;;;;;;0.00;1.00;;;;;;5013216;28;19920;-77
2023/03/12 02:49:45;;;;;;;;;;;0.10;1.00;;;;;;5013520;28;19925;-81
2023/03/12 02:52:29;;;;;;;;;;;0.10;1.00;;;;;;5012976;28;20008;-81
2023/03/12 02:55:21;;;;;;;;;;;0.10;1.00;;;;;;5012954;28;19916;-82
2023/03/12 02:57:51;;;;;;;;;;;0.10;1.00;;;;;;5024065;28;19920;-81
2023/03/12 03:00:21;;;;;;;;;;;0.10;1.00;;;;;;5092417;28;19908;-82
2023/03/12 03:02:51;;;;;;;;;;;0.10;1.00;;;;;;5094709;28;19908;-82
2023/03/12 03:05:21;;;;;;;;;;;0.10;1.00;;;;;;5091788;28;19909;-77
2023/03/12 03:07:57;;;;;;;;;;;0.10;1.00;;;;;;5095137;28;19958;-78
2023/03/12 03:10:27;;;;;;;;;;;0.00;1.00;;;;;;5076051;28;19942;-77
2023/03/12 03:13:03;;;;;;;;;;;0.00;1.00;;;;;;5081805;28;19925;-77
2023/03/12 03:15:33;;;;;;;;;;;0.00;1.00;;;;;;5076634;28;20003;-77
2023/03/12 03:18:04;;;;;;;;;;;0.00;1.00;;;;;;5094485;28;20317;-77
2023/03/12 03:20:33;;;;;;;;;;;0.00;1.00;;;;;;5084527;28;19908;-78
2023/03/12 03:22:59;;;;;;;;;;;0.00;1.00;;;;;;5094835;28;20418;-77
2023/03/12 03:25:24;;;;;;;;;;;0.00;1.00;;;;;;5095047;28;19950;-78
2023/03/12 03:27:57;;;;;;;;;;;0.00;1.00;;;;;;5093347;28;19958;-77
2023/03/12 03:30:27;;;;;;;;;;;0.00;1.00;;;;;;5085024;28;20282;-77
2023/03/12 03:32:57;;;;;;;;;;;0.10;1.00;;;;;;5063752;28;19966;-77
2023/03/12 03:35:27;;;;;;;;;;;0.10;1.00;;;;;;5068993;28;19916;-77
2023/03/12 03:37:57;;;;;;;;;;;0.00;1.00;;;;;;5076367;28;19940;-77
2023/03/12 03:40:23;;;;;;;;;;;0.10;1.00;;;;;;5094396;28;19912;-77
2023/03/12 03:42:57;;;;;;;;;;;0.10;1.00;;;;;;5094328;28;19935;-77
2023/03/12 03:45:33;;;;;;;;;;;0.10;1.00;;;;;;5094396;28;19926;-77
2023/03/12 03:48:03;;;;;;;;;;;0.20;1.00;;;;;;5094756;28;19962;-77
2023/03/12 03:50:30;;;;;;;;;;;0.20;1.00;;;;;;5084852;28;19920;-82
2023/03/12 03:52:57;;;;;;;;;;;0.30;1.00;;;;;;5093249;28;19916;-82
2023/03/12 03:55:57;;;;;;;;;;;0.30;1.00;;;;;;5094213;28;19913;-82
2023/03/12 03:58:39;;;;;;;;;;;0.40;1.00;;;;;;5091990;28;19912;-82
2023/03/12 04:01:15;;;;;;;;;;;0.40;1.00;;;;;;5089515;28;19923;-82
2023/03/12 04:03:51;;;;;;;;;;;0.50;1.00;;;;;;5069775;28;19919;-82
2023/03/12 04:06:28;;;;;;;;;;;0.50;1.00;;;;;;5090907;28;19908;-77
2023/03/12 04:08:54;;;;;;;;;;;0.50;1.00;;;;;;5072820;28;19916;-78
2023/03/12 04:11:27;;;;;;;;;;;0.50;1.00;;;;;;5091052;28;19912;-77
2023/03/12 04:13:53;;;;;;;;;;;0.50;1.00;;;;;;5093678;28;19916;-77
2023/03/12 04:16:22;;;;;;;;;;;0.50;1.00;;;;;;5093934;28;19915;-78
2023/03/12 04:18:59;;;;;;;;;;;0.50;1.00;;;;;;5094143;28;19974;-77
2023/03/12 04:21:57;;;;;;;;;;;0.50;1.00;;;;;;5087342;28;20268;-82
2023/03/12 04:24:39;;;;;;;;;;;0.60;1.00;;;;;;5076251;28;19919;-82
2023/03/12 04:27:05;;;;;;;;;;;0.50;1.00;;;;;;5082016;28;19915;-82
2023/03/12 04:29:45;;;;;;;;;;;0.50;1.00;;;;;;5093882;28;19916;-82
2023/03/12 04:32:21;;;;;;;;;;;0.60;1.00;;;;;;5082064;28;19912;-82
2023/03/12 04:34:47;;;;;;;;;;;0.70;1.00;;;;;;5093067;28;19912;-82
2023/03/12 04:37:30;;;;;;;;;;;0.70;1.00;;;;;;5094255;28;19965;-77
2023/03/12 04:39:57;;;;;;;;;;;0.70;1.00;;;;;;5087997;28;19977;-77
2023/03/12 04:42:27;;;;;;;;;;;0.80;1.00;;;;;;5086212;28;19912;-77
2023/03/12 04:45:05;;;;;;;;;;;0.80;1.00;;;;;;5093751;28;19912;-78
2023/03/12 04:47:33;;;;;;;;;;;0.80;1.00;;;;;;5092120;28;20372;-77
2023/03/12 04:49:59;;;;;;;;;;;0.80;1.00;;;;;;5085938;28;19923;-77
2023/03/12 04:52:27;;;;;;;;;;;0.90;1.00;;;;;;5092735;28;19939;-81
2023/03/12 04:55:27;;;;;;;;;;;0.90;1.00;;;;;;5082221;28;19922;-83
2023/03/12 04:57:57;;;;;;;;;;;0.90;1.00;;;;;;5055530;28;19919;-82
2023/03/12 05:00:23;;;;;;;;;;;1.00;1.00;;;;;;5075399;28;19919;-82
2023/03/12 05:05:57;;;;;;;;;;;1.00;1.00;;;;;;5090008;28;19914;-77
2023/03/12 05:08:27;;;;;;;;;;;1.10;1.00;;;;;;5093574;28;19916;-82
2023/03/12 05:10:57;;;;;;;;;;;1.10;1.00;;;;;;5090100;28;19947;-82
2023/03/12 05:13:27;;;;;;;;;;;1.10;1.00;;;;;;5062034;28;19917;-82
2023/03/12 05:19:09;;;;;;;;;;;1.20;1.00;;;;;;5093074;28;19962;-82
2023/03/12 05:21:57;;;;;;;;;;;1.20;1.00;;;;;;5093870;28;19915;-81
2023/03/12 05:24:23;;;;;;;;;;;1.20;1.00;;;;;;5069326;28;20371;-82
2023/03/12 05:26:49;;;;;;;;;;;1.20;1.00;;;;;;5075805;28;20062;-82
2023/03/12 05:29:21;;;;;;;;;;;1.20;1.00;;;;;;5068393;28;19908;-82
2023/03/12 05:31:57;;;;;;;;;;;1.20;1.00;;;;;;5095274;28;20310;-82
2023/03/12 05:34:23;;;;;;;;;;;1.20;1.00;;;;;;5082359;28;20017;-82
2023/03/12 05:37:03;;;;;;;;;;;1.20;1.00;;;;;;5059506;28;19910;-82
2023/03/12 05:39:29;;;;;;;;;;;1.20;1.00;;;;;;5074193;28;19908;-82
2023/03/12 05:41:58;;;;;;;;;;;1.30;1.00;;;;;;5096981;28;20057;-83
2023/03/12 05:44:28;;;;;;;;;;;1.30;1.00;;;;;;5078463;28;20039;-82
2023/03/12 05:46:57;;;;;;;;;;;1.20;1.00;;;;;;5095975;28;19919;-82
2023/03/12 05:49:51;;;;;;;;;;;1.10;1.00;;;;;;5096691;28;20049;-82
2023/03/12 05:52:21;;;;;;;;;;;1.10;1.00;;;;;;5097001;28;19970;-83
2023/03/12 05:55:03;;;;;;;;;;;1.20;1.00;;;;;;5083431;28;19908;-82
2023/03/12 05:57:39;;;;;;;;;;;1.30;1.00;;;;;;5095921;28;19999;-81
2023/03/12 06:00:05;;;;;;;;;;;1.30;1.00;;;;;;5096521;28;19954;-82
2023/03/12 06:02:39;;;;;;;;;;;1.40;1.00;;;;;;5095894;28;19918;-82
2023/03/12 06:05:33;;;;;;;;;;;1.40;1.00;;;;;;5096539;28;19908;-82
2023/03/12 06:07:59;;;;;;;;;;;1.50;1.00;;;;;;5094172;28;19948;-88
2023/03/12 06:10:25;;;;;;;;;;;1.60;1.00;;;;;;5077946;28;19960;-78
2023/03/12 06:12:51;;;;;;;;;;;1.60;1.00;;;;;;5074410;28;19917;-78
2023/03/12 06:15:27;;;;;;;;;;;1.60;1.00;;;;;;5060826;28;19912;-78
2023/03/12 06:17:57;;;;;;;;;;;1.60;1.00;;;;;;5089410;28;19965;-79
2023/03/12 06:20:27;;;;;;;;;;;1.60;1.00;;;;;;5092091;28;19916;-78
2023/03/12 06:22:57;;;;;;;;;;;1.70;1.00;;;;;;5072982;28;19916;-83
2023/03/12 06:25:57;;;;;;;;;;;1.70;1.00;;;;;;5077004;28;19930;-83
2023/03/12 06:28:27;;;;;;;;;;;1.70;1.00;;;;;;5095828;28;20012;-83
2023/03/12 06:30:57;;;;;;;;;;;1.80;1.00;;;;;;5095704;28;19922;-83
2023/03/12 06:33:23;;;;;;;;;;;1.80;1.00;;;;;;5071366;28;20295;-83
2023/03/12 06:35:59;;;;;;;;;;;1.80;1.00;;;;;;5065711;28;19912;-83
2023/03/12 06:38:25;;;;;;;;;;;1.80;1.00;;;;;;5077300;28;19908;-78
2023/03/12 06:40:59;;;;;;;;;;;1.80;1.00;;;;;;5093161;28;19961;-78
2023/03/12 06:43:26;;;;;;;;;;;1.80;1.00;;;;;;5087912;28;20278;-78
2023/03/12 06:45:58;;;;;;;;;;;1.80;1.00;;;;;;5092278;28;19912;-77
2023/03/12 06:48:28;;;;;;;;;;;1.90;1.00;;;;;;5092349;28;19965;-78
2023/03/12 06:50:57;;;;;;;;;;;2.00;1.00;;;;;;5089855;28;19921;-77
2023/03/12 06:53:27;;;;;;;;;;;2.10;1.00;;;;;;5094939;28;19955;-78
2023/03/12 06:56:03;;;;;;;;;;;2.20;1.00;;;;;;5082848;28;19921;-77
2023/03/12 06:58:45;;;;;;;;;;;2.20;1.00;;;;;;5082404;28;19956;-77
2023/03/12 07:01:21;;;;;;;;;;;2.30;1.00;;;;;;5090770;28;19912;-77
2023/03/12 07:03:57;;;;;;;;;;;2.40;1.00;;;;;;5094781;28;19908;-78
2023/03/12 07:06:27;;;;;;;;;;;2.40;1.00;;;;;;5093076;28;19938;-78
2023/03/12 07:08:57;;;;;;;;;;;2.50;1.00;;;;;;5094643;28;20012;-78
2023/03/12 07:11:28;;;;;;;;;;;2.50;1.00;;;;;;5067863;28;19931;-78
2023/03/12 07:13:57;;;;;;;;;;;2.60;1.00;;;;;;5070725;28;20007;-78
2023/03/12 07:16:23;;;;;;;;;;;2.70;1.00;;;;;;5094901;28;19998;-78
2023/03/12 07:18:51;;;;;;;;;;;2.90;1.00;;;;;;5094904;28;20010;-78
2023/03/12 07:21:22;;;;;;;;;;;3.10;1.00;;;;;;5082208;28;19912;-78
2023/03/12 07:23:57;;;;;;;;;;;3.20;1.00;;;;;;5091325;28;19908;-83
2023/03/12 07:26:27;;;;;;;;;;;3.30;1.00;;;;;;5086392;28;19921;-83
2023/03/12 07:29:03;;;;;;;;;;;3.40;1.00;;;;;;5085879;28;19922;-80
2023/03/12 07:31:51;;;;;;;;;;;3.60;1.00;;;;;;5082711;28;19912;-79
2023/03/12 07:34:21;;;;;;;;;;;3.70;1.00;;;;;;5086301;28;19909;-79
2023/03/12 07:36:51;;;;;;;;;;;3.90;1.00;;;;;;5075663;28;19915;-79
2023/03/12 07:39:21;;;;;;;;;;;4.00;1.00;;;;;;5071812;28;19908;-82
2023/03/12 07:41:51;;;;;;;;;;;4.20;1.00;;;;;;5073074;28;19916;-81
2023/03/12 07:44:21;;;;;;;;;;;4.30;1.00;;;;;;5093958;28;20002;-82
2023/03/12 07:46:47;;;;;;;;;;;4.40;1.00;;;;;;5094424;28;19999;-81
2023/03/12 07:49:27;;;;;;;;;;;4.40;1.00;;;;;;5079596;28;20348;-81
2023/03/12 07:51:53;;;;;;;;;;;4.30;1.00;;;;;;5089988;28;19916;-81
2023/03/12 07:54:29;;;;;;;;;;;4.40;1.00;;;;;;5093993;28;19908;-81
2023/03/12 07:56:58;;;;;;;;;;;4.40;1.00;;;;;;5075282;28;19915;-80
2023/03/12 07:59:39;;;;;;;;;;;4.10;1.00;;;;;;5093345;28;19916;-82
2023/03/12 08:02:27;;;;;;;;;;;4.10;1.00;;;;;;5083762;28;19912;-82
2023/03/12 08:05:27;;;;;;;;;;;4.20;1.00;;;;;;5076532;28;19912;-82
2023/03/12 08:07:57;;;;;;;;;;;4.20;1.00;;;;;;5082620;28;19912;-82
2023/03/12 08:10:23;;;;;;;;;;;4.30;1.00;;;;;;5074131;28;19916;-78
2023/03/12 08:12:57;;;;;;;;;;;4.40;1.00;;;;;;5086790;28;19915;-77
2023/03/12 08:15:39;;;;;;;;;;;4.40;1.00;;;;;;5073847;28;20077;-77
2023/03/12 08:18:23;;;;;;;;;;;4.20;1.00;;;;;;5074175;28;20022;-78
2023/03/12 08:20:50;;;;;;;;;;;4.20;1.00;;;;;;5074978;28;20359;-78
2023/03/12 08:23:27;;;;;;;;;;;4.10;1.00;;;;;;5060406;28;20252;-78
2023/03/12 08:25:57;;;;;;;;;;;4.10;1.00;;;;;;5083645;28;19961;-79
2023/03/12 08:28:27;;;;;;;;;;;4.00;1.00;;;;;;5093369;28;19916;-79
2023/03/12 08:30:54;;;;;;;;;;;3.90;1.00;;;;;;5073751;28;19964;-82
2023/03/12 08:33:22;;;;;;;;;;;3.90;1.00;;;;;;5087886;28;20011;-83
2023/03/12 08:35:51;;;;;;;;;;;4.00;1.00;;;;;;5089455;28;19961;-81
2023/03/12 08:38:17;;;;;;;;;;;3.80;1.00;;;;;;5090224;28;19912;-81
2023/03/12 08:40:43;;;;;;;;;;;3.80;1.00;;;;;;5057687;28;20329;-81
2023/03/12 08:43:09;;;;;;;;;;;3.80;1.00;;;;;;5088304;28;19912;-81
2023/03/12 08:45:45;;;;;;;;;;;3.90;1.00;;;;;;5087869;28;19908;-81
2023/03/12 08:48:11;;;;;;;;;;;3.70;1.00;;;;;;5071692;28;19962;-82
2023/03/12 08:50:57;;;;;;;;;;;3.70;1.00;;;;;;5093967;28;20340;-83
2023/03/12 08:53:27;;;;;;;;;;;3.60;1.00;;;;;;5093388;28;19917;-82
2023/03/12 08:55:57;;;;;;;;;;;3.70;1.00;;;;;;5091632;28;19908;-87
2023/03/12 08:58:27;;;;;;;;;;;3.80;1.00;;;;;;5092203;28;19958;-85
2023/03/12 09:00:57;;;;;;;;;;;3.80;1.00;;;;;;5089154;28;19912;-85
2023/03/12 09:03:27;;;;;;;;;;;3.60;1.00;;;;;;5097598;28;19956;-85
2023/03/12 09:06:11;;;;;;;;;;;3.70;1.00;;;;;;5097713;28;19998;-85
2023/03/12 09:08:46;;;;;;;;;;;3.90;1.00;;;;;;5097947;28;19934;-85
2023/03/12 09:11:21;;;;;;;;;;;3.80;1.00;;;;;;5097227;28;19924;-81
2023/03/12 09:13:58;;;;;;;;;;;3.90;1.00;;;;;;5084473;28;20321;-78
2023/03/12 09:16:27;;;;;;;;;;;3.90;1.00;;;;;;5083318;28;20399;-79
2023/03/12 09:18:53;;;;;;;;;;;3.80;1.00;;;;;;5093191;28;19948;-78
2023/03/12 09:21:21;;;;;;;;;;;3.80;1.00;;;;;;5097376;28;19959;-78
2023/03/12 09:23:58;;;;;;;;;;;3.70;1.00;;;;;;5090903;28;19955;-79
2023/03/12 09:26:27;;;;;;;;;;;3.60;1.00;;;;;;5088836;28;19917;-81
2023/03/12 09:28:58;;;;;;;;;;;3.50;1.00;;;;;;5080605;28;19912;-82
2023/03/12 09:31:28;;;;;;;;;;;3.40;1.00;;;;;;5088130;28;19916;-80
2023/03/12 09:34:09;;;;;;;;;;;3.40;1.00;;;;;;5096933;28;19955;-81
2023/03/12 09:36:45;;;;;;;;;;;3.30;1.00;;;;;;5096014;28;19916;-82
2023/03/12 09:39:22;;;;;;;;;;;3.30;1.00;;;;;;5097138;28;19958;-80
2023/03/12 09:41:48;;;;;;;;;;;3.50;1.00;;;;;;5075421;28;19912;-82
2023/03/12 09:44:39;;;;;;;;;;;3.50;1.00;;;;;;5078551;28;19912;-82
2023/03/12 09:47:19;;;;;;;;;;;3.80;1.00;;;;;;5077212;28;19916;-79
2023/03/12 09:49:55;;;;;;;;;;;3.80;1.00;;;;;;5063767;28;19916;-79
2023/03/12 09:52:24;;;;;;;;;;;3.90;1.00;;;;;;5076393;28;19963;-79
2023/03/12 09:55:01;;;;;;;;;;;3.90;1.00;;;;;;5062806;28;19951;-85
2023/03/12 09:57:28;;;;;;;;;;;3.60;1.00;;;;;;5081620;28;20299;-84
2023/03/12 09:59:58;;;;;;;;;;;3.60;1.00;;;;;;5095150;28;19923;-84
2023/03/12 10:02:32;;;;;;;;;;;3.70;1.00;;;;;;5096336;28;20379;-84
2023/03/12 10:05:21;;;;;;;;;;;3.90;1.00;;;;;;5078682;28;20314;-84
2023/03/12 10:07:52;;;;;;;;;;;3.90;1.00;;;;;;5060901;28;19995;-84
2023/03/12 10:10:21;;;;;;;;;;;3.90;1.00;;;;;;5072231;28;19920;-79
2023/03/12 10:12:57;;;;;;;;;;;3.90;1.00;;;;;;5094319;28;19916;-79
2023/03/12 10:15:47;;;;;;;;;;;3.80;1.00;;;;;;5095012;28;20275;-79
2023/03/12 10:18:19;;;;;;;;;;;4.00;1.00;;;;;;5068984;28;20175;-79
2023/03/12 10:20:57;;;;;;;;;;;3.90;1.00;;;;;;5086236;28;20011;-85
2023/03/12 10:23:57;;;;;;;;;;;3.90;1.00;;;;;;5095412;28;20369;-86
2023/03/12 10:26:57;;;;;;;;;;;4.00;1.00;;;;;;5086385;28;19909;-87
2023/03/12 10:29:29;;;;;;;;;;;4.10;1.00;;;;;;5093003;28;19912;-86
2023/03/12 10:35:29;;;;;;;;;;;4.50;1.00;;;;;;5095388;28;19912;-87
2023/03/12 10:38:02;;;;;;;;;;;4.60;1.00;;;;;;5076214;28;19908;-86
2023/03/12 10:40:32;;;;;;;;;;;4.40;1.00;;;;;;5082701;28;19912;-85
2023/03/12 10:43:15;;;;;;;;;;;4.30;1.00;;;;;;5074044;28;19919;-85
2023/03/12 10:46:00;;;;;;;;;;;4.40;1.00;;;;;;5094102;28;19908;-84
2023/03/12 10:48:51;;;;;;;;;;;4.60;1.00;;;;;;5095160;28;20396;-85
2023/03/12 10:51:27;;;;;;;;;;;4.90;1.00;;;;;;5077103;28;19916;-84
2023/03/12 11:00:05;;;;;;;;;;;5.10;1.00;;;;;;5095300;28;20037;-84
2023/03/12 11:05:39;;;;;;;;;;;5.60;1.00;;;;;;5083829;28;20439;-85
2023/03/12 11:08:26;;;;;;;;;;;5.60;1.00;;;;;;5086301;28;20272;-85
2023/03/12 11:11:04;;;;;;;;;;;5.90;1.00;;;;;;5076148;28;20363;-82
2023/03/12 11:13:39;;;;;;;;;;;6.00;1.00;;;;;;5094334;28;20279;-84
2023/03/12 11:16:39;;;;;;;;;;;6.20;1.00;;;;;;5083611;28;19912;-84
2023/03/12 11:19:05;;;;;;;;;;;6.00;1.00;;;;;;5093726;28;19955;-84
2023/03/12 11:25:12;;;;;;;;;;;5.90;1.00;;;;;;5094500;28;19997;-85
2023/03/12 11:27:53;;;;;;;;;;;6.00;1.00;;;;;;5016187;28;20272;-86
2023/03/12 11:30:31;;;;;;;;;;;5.90;1.00;;;;;;5015538;28;20011;-88
2023/03/12 11:33:16;;;;;;;;;;;6.00;1.00;;;;;;5033882;28;20996;-88
2023/03/12 11:35:51;;;;;;;;;;;6.00;1.00;;;;;;5014242;28;19920;-86
2023/03/12 11:38:29;;;;;;;;;;;6.10;1.00;;;;;;5026086;28;20349;-80
2023/03/12 11:41:15;;;;;;;;;;;5.80;1.00;;;;;;5009859;28;20327;-78
2023/03/12 11:43:51;;;;;;;;;;;5.90;1.00;;;;;;5026038;28;20065;-86
2023/03/12 11:46:24;;;;;;;;;;;6.00;1.00;;;;;;5031827;28;20261;-84
2023/03/12 11:49:13;;;;;;;;;;;6.10;1.00;;;;;;5031542;28;19913;-83
2023/03/12 11:51:55;;;;;;;;;;;6.00;1.00;;;;;;5019601;28;20385;-81
2023/03/12 11:54:23;;;;;;;;;;;5.80;1.00;;;;;;5015216;28;20202;-81
2023/03/12 11:56:52;;;;;;;;;;;5.70;1.00;;;;;;5032456;28;19947;-81
2023/03/12 11:59:30;;;;;;;;;;;5.80;1.00;;;;;;5014556;28;19936;-80
2023/03/12 12:02:15;;;;;;;;;;;5.80;1.00;;;;;;5050498;28;19912;-80
2023/03/12 12:05:03;;;;;;;;;;;5.60;1.00;;;;;;5063901;28;19998;-79
2023/03/12 12:07:33;;;;;;;;;;;5.90;1.00;;;;;;5062210;28;19995;-79
2023/03/12 12:10:12;;;;;;;;;;;6.20;1.00;;;;;;5064829;28;20325;-79
2023/03/12 12:18:43;;;;;;;;;;;6.20;1.00;;;;;;5093960;28;19955;-81
2023/03/12 12:21:43;;;;;;;;;;;6.30;1.00;;;;;;5094228;28;19908;-81
2023/03/12 12:24:21;;;;;;;;;;;6.50;1.00;;;;;;5023532;28;19925;-80
2023/03/12 12:27:21;;;;;;;;;;;6.60;1.00;;;;;;5031850;28;20316;-80
2023/03/12 12:30:03;;;;;;;;;;;6.90;1.00;;;;;;5041277;28;20003;-81
2023/03/12 12:32:51;;;;;;;;;;;7.10;1.00;;;;;;5032997;28;19920;-81
2023/03/12 12:35:26;;;;;;;;;;;7.20;1.00;;;;;;5014461;28;19917;-80
2023/03/12 12:38:15;;;;;;;;;;;6.90;1.00;;;;;;5034291;28;20377;-81
2023/03/12 12:40:53;;;;;;;;;;;7.10;1.00;;;;;;5032284;28;19999;-85
2023/03/12 12:43:21;;;;;;;;;;;7.60;1.00;;;;;;5035737;28;20424;-83
2023/03/12 12:46:21;;;;;;;;;;;7.70;1.00;;;;;;5018723;28;19909;-84
2023/03/12 12:48:50;;;;;;;;;;;7.90;1.00;;;;;;5035804;28;19909;-84
2023/03/12 12:51:24;;;;;;;;;;;7.80;1.00;;;;;;5010540;28;20049;-84
2023/03/12 12:57:02;;;;;;;;;;;7.80;1.00;;;;;;5035013;28;20486;-81
2023/03/12 12:59:51;;;;;;;;;;;8.10;1.00;;;;;;5046167;28;19912;-80
2023/03/12 13:02:25;;;;;;;;;;;8.40;1.00;;;;;;5083705;28;19915;-81
2023/03/12 13:04:55;;;;;;;;;;;8.80;1.00;;;;;;5091008;28;19915;-81
2023/03/12 13:07:21;;;;;;;;;;;8.80;1.00;;;;;;5082457;28;19915;-80
2023/03/12 13:09:53;;;;;;;;;;;8.90;1.00;;;;;;5095646;28;20252;-81
2023/03/12 13:12:51;;;;;;;;;;;8.90;1.00;;;;;;5094796;28;19908;-81
2023/03/12 13:15:34;;;;;;;;;;;9.40;1.00;;;;;;5095332;28;19998;-81
2023/03/12 13:18:10;;;;;;;;;;;9.40;1.00;;;;;;5095799;28;19915;-81
2023/03/12 13:21:12;;;;;;;;;;;9.80;1.00;;;;;;5096100;28;19914;-81
2023/03/12 13:23:44;;;;;;;;;;;10.00;1.00;;;;;;5054620;28;19912;-81
2023/03/12 13:26:21;;;;;;;;;;;10.20;1.00;;;;;;5054572;28;19928;-81
2023/03/12 13:29:22;;;;;;;;;;;10.40;1.00;;;;;;5038022;28;20288;-82
2023/03/12 13:31:58;;;;;;;;;;;10.70;1.00;;;;;;5037907;28;19935;-82
2023/03/12 13:34:44;;;;;;;;;;;10.00;1.00;;;;;;5020284;28;19959;-82
2023/03/12 13:37:42;;;;;;;;;;;9.90;1.00;;;;;;5054494;28;19947;-82
2023/03/12 13:40:39;;;;;;;;;;;10.30;1.00;;;;;;4989708;28;20360;-82
2023/03/12 13:43:15;;;;;;;;;;;10.80;1.00;;;;;;4995209;28;19910;-82
2023/03/12 13:46:03;;;;;;;;;;;11.10;1.00;;;;;;4972855;28;20419;-82
2023/03/12 13:48:47;;;;;;;;;;;10.90;1.00;;;;;;4986690;28;20011;-83
2023/03/12 13:51:28;;;;;;;;;;;11.20;1.00;;;;;;4985494;28;19980;-83
2023/03/12 13:54:16;;;;;;;;;;;11.30;1.00;;;;;;4978581;28;19925;-83
2023/03/12 13:56:45;;;;;;;;;;;11.40;1.00;;;;;;4994679;28;19921;-83
2023/03/12 13:59:22;;;;;;;;;;;11.20;1.00;;;;;;4987098;28;19910;-81
2023/03/12 14:01:49;;;;;;;;;;;11.10;1.00;;;;;;4991243;28;20410;-80
2023/03/12 14:04:34;;;;;;;;;;;11.20;1.00;;;;;;5014139;28;19910;-81
2023/03/12 14:07:08;;;;;;;;;;;11.30;1.00;;;;;;4988956;28;19937;-80
2023/03/12 14:09:40;;;;;;;;;;;11.10;1.00;;;;;;5013941;28;20349;-81
2023/03/12 14:12:36;;;;;;;;;;;11.30;1.00;;;;;;5010792;28;19928;-81
2023/03/12 14:15:20;;;;;;;;;;;11.20;1.00;;;;;;4967868;28;19931;-83
2023/03/12 14:17:53;;;;;;;;;;;11.20;1.00;;;;;;5014248;28;19909;-83
2023/03/12 14:20:45;;;;;;;;;;;11.20;1.00;;;;;;4997519;28;19964;-83
2023/03/12 14:23:33;;;;;;;;;;;10.90;1.00;;;;;;5014156;28;19910;-83
2023/03/12 14:26:19;;;;;;;;;;;10.80;1.00;;;;;;5013978;28;19916;-83
2023/03/12 14:32:09;;;;;;;;;;;11.00;1.00;;;;;;5013100;28;19931;-82
2023/03/12 14:37:51;;;;;;;;;;;10.80;1.00;;;;;;5013261;28;19921;-83
2023/03/12 14:40:46;;;;;;;;;;;10.90;1.00;;;;;;5013797;28;19933;-83
2023/03/12 14:46:28;;;;;;;;;;;11.10;1.00;;;;;;5009468;28;20454;-78
2023/03/12 14:49:22;;;;;;;;;;;11.20;1.00;;;;;;4997198;28;19913;-81
2023/03/12 14:51:52;;;;;;;;;;;11.30;1.00;;;;;;5042597;28;20018;-80
2023/03/12 14:54:19;;;;;;;;;;;11.30;1.00;;;;;;5077747;28;20652;-80
2023/03/12 14:56:52;;;;;;;;;;;11.40;1.00;;;;;;5092753;28;19916;-81
2023/03/12 14:59:30;;;;;;;;;;;11.40;1.00;;;;;;5067894;28;19930;-80
2023/03/12 15:05:04;;;;;;;;;;;11.40;1.00;;;;;;5077667;28;20004;-83
2023/03/12 15:07:36;;;;;;;;;;;11.40;1.00;;;;;;5089450;28;19973;-82
2023/03/12 15:10:30;;;;;;;;;;;11.50;1.00;;;;;;5095046;28;19919;-82
2023/03/12 15:15:58;;;;;;;;;;;11.50;1.00;;;;;;5095037;28;20287;-81
2023/03/12 15:18:52;;;;;;;;;;;11.60;1.00;;;;;;5084976;28;19912;-81
2023/03/12 15:21:17;;;;;;;;;;;11.70;1.00;;;;;;5082394;28;20375;-80
2023/03/12 15:23:46;;;;;;;;;;;11.60;1.00;;;;;;5094853;28;19908;-81
2023/03/12 15:29:25;;;;;;;;;;;11.70;1.00;;;;;;5074803;28;19916;-82
2023/03/12 15:31:58;;;;;;;;;;;11.70;1.00;;;;;;5075247;28;20010;-82
2023/03/12 15:34:34;;;;;;;;;;;11.80;1.00;;;;;;5067527;28;19920;-82
2023/03/12 15:37:00;;;;;;;;;;;11.90;1.00;;;;;;5073036;28;20264;-82
2023/03/12 15:39:35;;;;;;;;;;;11.90;1.00;;;;;;5072549;28;20380;-80
2023/03/12 15:42:18;;;;;;;;;;;11.90;1.00;;;;;;5094562;28;19908;-80
2023/03/12 15:44:52;;;;;;;;;;;12.00;1.00;;;;;;5075938;28;20295;-79
2023/03/12 15:47:45;;;;;;;;;;;11.90;1.00;;;;;;5063970;28;19912;-80
2023/03/12 15:50:22;;;;;;;;;;;11.80;1.00;;;;;;5092670;28;19923;-78
2023/03/12 15:53:00;;;;;;;;;;;11.70;1.00;;;;;;5080409;28;20010;-79
2023/03/12 15:55:34;;;;;;;;;;;11.50;1.00;;;;;;5094488;28;19908;-80
2023/03/12 15:58:16;;;;;;;;;;;11.40;1.00;;;;;;5093907;28;19930;-79
2023/03/12 16:00:52;;;;;;;;;;;11.30;1.00;;;;;;5094437;28;20352;-81
2023/03/12 16:03:34;;;;;;;;;;;11.30;1.00;;;;;;5093811;28;19912;-82
2023/03/12 16:09:03;;;;;;;;;;;11.20;1.00;;;;;;5076171;28;20280;-81
2023/03/12 16:12:03;;;;;;;;;;;11.20;1.00;;;;;;5093983;28;19912;-81
2023/03/12 16:14:35;;;;;;;;;;;11.20;1.00;;;;;;5094882;28;19947;-80
2023/03/12 16:17:01;;;;;;;;;;;11.20;1.00;;;;;;5080295;28;19912;-80
2023/03/12 16:19:28;;;;;;;;;;;11.20;1.00;;;;;;5094183;28;19990;-80
2023/03/12 16:24:57;;;;;;;;;;;11.10;1.00;;;;;;5093653;28;20341;-79
2023/03/12 16:27:48;;;;;;;;;;;11.10;1.00;;;;;;5087081;28;19908;-79
2023/03/12 16:30:16;;;;;;;;;;;11.00;1.00;;;;;;5076855;28;19912;-81
2023/03/12 16:32:42;;;;;;;;;;;11.00;1.00;;;;;;5085292;28;20317;-81